createdAt,value
2018-07-21T00:02:05.919Z,8.20
2018-07-21T00:04:40.263Z,8.80
2018-07-21T00:07:15.972Z,9.33
2018-07-21T00:09:51.863Z,9.63
2018-07-21T00:12:27.783Z,9.90
2018-07-21T00:15:02.205Z,9.00
2018-07-21T00:17:36.611Z,9.20
2018-07-21T00:20:13.195Z,7.93
2018-07-21T00:22:49.509Z,8.57
2018-07-21T00:25:24.055Z,8.87
2018-07-21T00:27:58.866Z,9.87
2018-07-21T00:30:33.244Z,8.57
2018-07-21T00:33:08.867Z,8.13
2018-07-21T00:35:43.254Z,8.77
2018-07-21T00:38:17.619Z,8.83
2018-07-21T00:40:52.275Z,7.83
2018-07-21T00:43:27.699Z,8.13
2018-07-21T00:46:03.822Z,8.07
2018-07-21T00:48:38.219Z,8.53
2018-07-21T00:51:13.925Z,7.70
2018-07-21T00:53:48.423Z,8.57
2018-07-21T00:56:22.838Z,7.50
2018-07-21T00:58:57.335Z,7.30
2018-07-21T01:01:31.607Z,7.10
2018-07-21T01:04:06.588Z,7.87
2018-07-21T01:06:41.899Z,7.20
2018-07-21T01:09:17.587Z,8.13
2018-07-21T01:12:07.312Z,7.13
2018-07-21T01:14:41.715Z,6.87
2018-07-21T01:17:16.191Z,6.90
2018-07-21T01:19:52.241Z,7.53
2018-07-21T01:22:26.737Z,6.67
2018-07-21T01:25:02.488Z,7.00
2018-07-21T01:27:37.084Z,7.17
2018-07-21T01:30:11.406Z,6.53
2018-07-21T01:32:48.639Z,6.73
2018-07-21T01:35:24.399Z,6.80
2018-07-21T01:37:58.994Z,7.37
2018-07-21T01:40:33.398Z,6.83
2018-07-21T01:43:09.122Z,7.00
2018-07-21T01:45:43.394Z,6.67
2018-07-21T01:48:17.846Z,6.20
2018-07-21T01:50:53.584Z,6.37
2018-07-21T01:53:27.951Z,6.17
2018-07-21T01:56:02.230Z,5.90
2018-07-21T01:58:36.577Z,6.30
2018-07-21T02:01:10.975Z,7.00
2018-07-21T02:03:47.199Z,6.30
2018-07-21T02:06:23.506Z,6.53
2018-07-21T02:08:59.340Z,6.23
2018-07-21T02:11:33.679Z,6.67
2018-07-21T02:14:09.461Z,6.37
2018-07-21T02:16:43.820Z,8.43
2018-07-21T02:19:19.972Z,6.90
2018-07-21T02:21:54.691Z,6.30
2018-07-21T02:24:31.392Z,6.37
2018-07-21T02:27:07.135Z,6.27
2018-07-21T02:29:41.585Z,6.43
2018-07-21T02:32:17.737Z,6.80
2018-07-21T02:34:52.146Z,6.40
2018-07-21T02:37:27.590Z,5.90
2018-07-21T02:40:03.439Z,7.20
2018-07-21T02:42:37.847Z,6.37
2018-07-21T02:45:12.188Z,6.13
2018-07-21T02:47:46.589Z,7.10
2018-07-21T02:50:22.570Z,6.40
2018-07-21T02:52:56.871Z,6.07
2018-07-21T02:55:31.479Z,5.83
2018-07-21T02:58:06.985Z,6.60
2018-07-21T03:00:41.511Z,6.53
2018-07-21T03:03:15.940Z,7.43
2018-07-21T03:05:51.888Z,8.30
2018-07-21T03:08:33.688Z,6.50
2018-07-21T03:11:08.138Z,7.90
2018-07-21T03:13:43.795Z,7.53
2018-07-21T03:16:18.203Z,7.87
2018-07-21T03:18:54.367Z,8.27
2018-07-21T03:21:28.758Z,7.50
2018-07-21T03:24:04.466Z,7.70
2018-07-21T03:26:38.911Z,7.97
2018-07-21T03:29:13.267Z,8.30
2018-07-21T03:31:49.184Z,8.03
2018-07-21T03:34:23.684Z,7.47
2018-07-21T03:36:58.435Z,8.80
2018-07-21T03:39:33.995Z,9.07
2018-07-21T03:42:08.283Z,9.50
2018-07-21T03:44:43.015Z,9.23
2018-07-21T03:47:17.411Z,8.27
2018-07-21T03:49:53.211Z,9.80
2018-07-21T03:52:28.978Z,8.60
2018-07-21T03:55:03.567Z,8.67
2018-07-21T03:57:37.879Z,8.00
2018-07-21T04:00:12.307Z,9.20
2018-07-21T04:02:46.931Z,10.17
2018-07-21T04:05:22.214Z,8.70
2018-07-21T04:08:06.424Z,8.50
2018-07-21T04:10:41.824Z,8.43
2018-07-21T04:13:17.582Z,8.60
2018-07-21T04:15:51.870Z,9.07
2018-07-21T04:18:35.251Z,7.90
2018-07-21T04:21:09.775Z,10.63
2018-07-21T04:23:45.575Z,8.90
2018-07-21T04:26:20.176Z,8.87
2018-07-21T04:28:54.791Z,8.27
2018-07-21T04:31:30.711Z,9.37
2018-07-21T04:34:06.434Z,9.13
2018-07-21T04:36:42.631Z,9.03
2018-07-21T04:39:18.239Z,8.20
2018-07-21T04:41:52.588Z,8.20
2018-07-21T04:44:28.322Z,8.10
2018-07-21T04:47:02.787Z,8.27
2018-07-21T04:49:38.707Z,8.57
2018-07-21T04:52:13.224Z,8.73
2018-07-21T04:54:47.610Z,9.17
2018-07-21T04:57:22.000Z,9.43
2018-07-21T04:59:58.222Z,7.93
2018-07-21T05:02:32.527Z,9.00
2018-07-21T05:05:07.203Z,7.87
2018-07-21T05:07:43.353Z,8.27
2018-07-21T05:10:18.956Z,7.57
2018-07-21T05:12:54.663Z,9.10
2018-07-21T05:15:29.335Z,7.53
2018-07-21T05:18:03.727Z,8.17
2018-07-21T05:20:39.607Z,7.93
2018-07-21T05:23:15.563Z,8.10
2018-07-21T05:25:50.096Z,7.97
2018-07-21T05:28:25.537Z,7.30
2018-07-21T05:30:59.814Z,8.20
2018-07-21T05:33:35.367Z,8.40
2018-07-21T05:36:16.060Z,8.23
2018-07-21T05:38:50.516Z,7.50
2018-07-21T05:41:25.354Z,6.53
2018-07-21T05:43:59.772Z,7.30
2018-07-21T05:46:34.715Z,7.40
2018-07-21T05:49:15.039Z,8.50
2018-07-21T05:51:50.758Z,7.57
2018-07-21T05:54:25.398Z,8.03
2018-07-21T05:57:01.335Z,8.07
2018-07-21T05:59:35.640Z,8.83
2018-07-21T06:02:10.804Z,8.37
2018-07-21T06:04:45.204Z,7.07
2018-07-21T06:07:19.722Z,8.70
2018-07-21T06:09:55.895Z,8.13
2018-07-21T06:12:31.776Z,8.60
2018-07-21T06:15:06.392Z,7.57
2018-07-21T06:17:40.784Z,10.20
2018-07-21T06:20:16.664Z,8.50
2018-07-21T06:22:52.530Z,8.80
2018-07-21T06:25:27.183Z,9.37
2018-07-21T06:28:01.762Z,9.67
2018-07-21T06:30:37.583Z,10.10
2018-07-21T06:33:13.525Z,10.27
2018-07-21T06:35:47.812Z,9.10
2018-07-21T06:38:22.214Z,9.53
2018-07-21T06:40:56.743Z,9.70
2018-07-21T06:43:32.248Z,9.40
2018-07-21T06:46:06.871Z,10.10
2018-07-21T06:48:41.454Z,9.60
2018-07-21T06:51:16.941Z,8.90
2018-07-21T06:53:51.603Z,10.23
2018-07-21T06:56:27.574Z,9.07
2018-07-21T06:59:02.038Z,10.37
2018-07-21T07:01:36.280Z,10.90
2018-07-21T07:04:10.848Z,9.90
2018-07-21T07:06:45.347Z,9.80
2018-07-21T07:09:22.886Z,10.03
2018-07-21T07:11:57.664Z,10.30
2018-07-21T07:14:33.135Z,9.00
2018-07-21T07:17:07.639Z,9.40
2018-07-21T07:19:43.576Z,9.70
2018-07-21T07:22:19.448Z,11.10
2018-07-21T07:24:54.881Z,9.80
2018-07-21T07:27:29.300Z,8.70
2018-07-21T07:30:05.841Z,8.80
2018-07-21T07:32:41.691Z,9.30
2018-07-21T07:35:18.289Z,9.60
2018-07-21T07:37:52.531Z,8.77
2018-07-21T07:40:27.028Z,9.60
2018-07-21T07:43:01.543Z,9.90
2018-07-21T07:45:36.004Z,8.30
2018-07-21T07:48:10.584Z,9.50
2018-07-21T07:50:46.329Z,9.40
2018-07-21T07:53:20.740Z,10.30
2018-07-21T07:55:56.735Z,9.13
2018-07-21T07:58:31.256Z,9.70
2018-07-21T08:01:05.538Z,9.90
2018-07-21T08:03:40.003Z,12.07
2018-07-21T08:06:14.283Z,10.87
2018-07-21T08:08:50.266Z,11.00
2018-07-21T08:11:24.550Z,11.20
2018-07-21T08:14:00.480Z,11.10
2018-07-21T08:16:36.152Z,11.50
2018-07-21T08:19:17.222Z,11.80
2018-07-21T08:21:51.517Z,11.60
2018-07-21T08:24:31.443Z,11.70
2018-07-21T08:27:07.546Z,12.60
2018-07-21T08:29:42.059Z,13.17
2018-07-21T08:32:17.896Z,13.07
2018-07-21T08:34:52.535Z,12.63
2018-07-21T08:37:26.819Z,11.40
2018-07-21T08:40:01.509Z,11.60
2018-07-21T08:42:35.910Z,12.30
2018-07-21T08:45:10.407Z,12.70
2018-07-21T08:47:44.859Z,11.70
2018-07-21T08:50:21.524Z,12.83
2018-07-21T08:52:55.856Z,12.80
2018-07-21T08:55:31.940Z,12.70
2018-07-21T08:58:06.545Z,13.03
2018-07-21T09:00:40.918Z,13.23
2018-07-21T09:03:15.694Z,12.67
2018-07-21T09:05:50.229Z,15.10
2018-07-21T09:08:34.531Z,14.07
2018-07-21T09:11:08.963Z,13.03
2018-07-21T09:13:44.372Z,14.00
2018-07-21T09:16:20.421Z,14.33
2018-07-21T09:18:56.006Z,14.90
2018-07-21T09:21:32.275Z,14.93
2018-07-21T09:24:07.846Z,13.77
2018-07-21T09:26:42.262Z,15.13
2018-07-21T09:29:16.755Z,14.50
2018-07-21T09:32:00.807Z,15.10
2018-07-21T09:34:35.379Z,14.40
2018-07-21T09:37:10.113Z,13.90
2018-07-21T09:39:44.661Z,13.27
2018-07-21T09:42:20.427Z,14.23
2018-07-21T09:44:54.971Z,14.30
2018-07-21T09:47:29.271Z,13.77
2018-07-21T09:50:06.299Z,13.10
2018-07-21T09:52:42.062Z,14.80
2018-07-21T09:55:16.515Z,13.60
2018-07-21T09:57:50.948Z,14.83
2018-07-21T10:00:30.758Z,14.60
2018-07-21T10:03:06.251Z,14.80
2018-07-21T10:05:40.788Z,14.07
2018-07-21T10:08:16.422Z,14.60
2018-07-21T10:10:52.278Z,15.00
2018-07-21T10:13:27.936Z,15.43
2018-07-21T10:16:02.686Z,15.60
2018-07-21T10:18:38.755Z,13.77
2018-07-21T10:21:14.743Z,16.00
2018-07-21T10:23:50.647Z,15.40
2018-07-21T10:26:31.159Z,16.50
2018-07-21T10:29:11.283Z,14.70
2018-07-21T10:31:47.287Z,16.00
2018-07-21T10:34:23.159Z,14.00
2018-07-21T10:36:57.547Z,13.27
2018-07-21T10:39:32.563Z,13.00
2018-07-21T10:42:07.031Z,13.10
2018-07-21T10:44:41.429Z,13.33
2018-07-21T10:47:15.690Z,12.60
2018-07-21T10:49:51.495Z,14.10
2018-07-21T10:52:26.147Z,13.50
2018-07-21T10:55:01.963Z,14.97
2018-07-21T10:57:36.246Z,13.10
2018-07-21T11:00:11.818Z,14.87
2018-07-21T11:02:46.047Z,14.43
2018-07-21T11:05:21.950Z,13.23
2018-07-21T11:07:57.320Z,13.03
2018-07-21T11:10:33.223Z,11.97
2018-07-21T11:13:08.846Z,11.67
2018-07-21T11:15:43.306Z,14.97
2018-07-21T11:21:07.523Z,13.30
2018-07-21T11:23:42.981Z,12.70
2018-07-21T11:26:17.396Z,12.23
2018-07-21T11:28:51.829Z,12.83
2018-07-21T11:31:28.115Z,13.67
2018-07-21T11:34:03.946Z,13.20
2018-07-21T11:36:38.468Z,12.90
2018-07-21T11:39:14.067Z,11.70
2018-07-21T11:41:48.379Z,12.30
2018-07-21T11:44:22.687Z,11.80
2018-07-21T11:46:58.490Z,12.73
2018-07-21T11:49:36.622Z,12.80
2018-07-21T11:52:12.434Z,13.07
2018-07-21T11:54:46.714Z,12.40
2018-07-21T11:57:21.188Z,12.37
2018-07-21T12:02:36.011Z,12.70
2018-07-21T12:05:11.739Z,13.13
2018-07-21T12:07:46.154Z,12.83
2018-07-21T12:10:21.703Z,12.80
2018-07-21T12:12:57.435Z,14.03
2018-07-21T12:15:31.885Z,15.63
2018-07-21T12:18:07.788Z,13.70
2018-07-21T12:20:43.503Z,13.33
2018-07-21T12:23:19.263Z,12.40
2018-07-21T12:25:54.002Z,13.20
2018-07-21T12:28:28.327Z,13.53
2018-07-21T12:31:03.010Z,13.80
2018-07-21T12:33:38.803Z,12.80
2018-07-21T12:36:13.255Z,13.20
2018-07-21T12:38:47.791Z,11.93
2018-07-21T12:41:24.049Z,11.67
2018-07-21T12:43:59.487Z,11.83
2018-07-21T12:46:33.863Z,11.60
2018-07-21T12:49:16.789Z,9.90
2018-07-21T12:51:51.179Z,10.90
2018-07-21T12:54:25.482Z,9.23
2018-07-21T12:56:59.810Z,11.60
2018-07-21T12:59:34.488Z,11.37
2018-07-21T13:02:10.219Z,11.03
2018-07-21T13:04:44.648Z,10.93
2018-07-21T13:07:19.063Z,13.30
2018-07-21T13:09:54.535Z,14.10
2018-07-21T13:12:34.123Z,13.90
2018-07-21T13:15:09.719Z,13.87
2018-07-21T13:17:44.251Z,12.23
2018-07-21T13:20:20.060Z,11.77
2018-07-21T13:22:56.027Z,12.03
2018-07-21T13:25:30.415Z,14.57
2018-07-21T13:28:05.415Z,13.93
2018-07-21T13:30:40.071Z,13.50
2018-07-21T13:33:15.939Z,11.20
2018-07-21T13:35:50.193Z,11.13
2018-07-21T13:38:24.995Z,11.70
2018-07-21T13:40:59.475Z,10.70
2018-07-21T13:43:33.928Z,10.17
2018-07-21T13:46:08.423Z,10.90
2018-07-21T13:48:51.883Z,11.80
2018-07-21T13:51:27.698Z,11.00
2018-07-21T13:54:02.294Z,11.30
2018-07-21T13:56:37.406Z,10.90
2018-07-21T13:59:11.795Z,12.30
2018-07-21T14:01:46.634Z,13.60
2018-07-21T14:04:27.718Z,11.47
2018-07-21T14:07:03.579Z,12.27
2018-07-21T14:09:39.486Z,11.83
2018-07-21T14:12:33.737Z,11.47
2018-07-21T14:15:08.273Z,10.30
2018-07-21T14:17:42.698Z,10.90
2018-07-21T14:20:19.387Z,10.77
2018-07-21T14:22:55.252Z,10.17
2018-07-21T14:25:31.424Z,10.40
2018-07-21T14:28:06.299Z,9.80
2018-07-21T14:30:40.624Z,9.93
2018-07-21T14:33:16.777Z,10.57
2018-07-21T14:35:51.261Z,9.80
2018-07-21T14:38:25.732Z,9.73
2018-07-21T14:41:00.026Z,10.20
2018-07-21T14:43:35.708Z,10.07
2018-07-21T14:46:10.059Z,10.30
2018-07-21T14:48:53.092Z,10.30
2018-07-21T14:51:28.751Z,11.33
2018-07-21T14:54:03.231Z,10.50
2018-07-21T14:56:38.132Z,11.37
2018-07-21T14:59:12.615Z,11.93
2018-07-21T15:01:47.122Z,11.20
2018-07-21T15:04:21.438Z,10.57
2018-07-21T15:06:57.030Z,10.43
2018-07-21T15:09:32.436Z,10.23
2018-07-21T15:12:07.262Z,10.30
2018-07-21T15:14:43.051Z,8.77
2018-07-21T15:17:17.487Z,11.63
2018-07-21T15:19:53.703Z,11.20
2018-07-21T15:22:28.129Z,10.87
2018-07-21T15:25:03.566Z,10.87
2018-07-21T15:27:38.118Z,10.87
2018-07-21T15:30:12.747Z,10.53
2018-07-21T15:32:48.577Z,10.67
2018-07-21T15:35:22.975Z,11.30
2018-07-21T15:37:57.347Z,11.60
2018-07-21T15:40:31.905Z,11.50
2018-07-21T15:43:06.568Z,12.20
2018-07-21T15:45:40.851Z,11.27
2018-07-21T15:48:15.421Z,11.33
2018-07-21T15:50:51.219Z,11.60
2018-07-21T15:53:25.807Z,11.97
2018-07-21T15:56:00.088Z,11.57
2018-07-21T15:58:34.727Z,11.23
2018-07-21T16:01:09.340Z,11.83
2018-07-21T16:03:43.744Z,11.03
2018-07-21T16:06:29.405Z,12.33
2018-07-21T16:09:08.451Z,12.33
2018-07-21T16:11:44.944Z,11.63
2018-07-21T16:14:20.159Z,11.87
2018-07-21T16:16:54.476Z,12.03
2018-07-21T16:19:30.295Z,12.43
2018-07-21T16:22:05.287Z,12.57
2018-07-21T16:24:40.891Z,12.60
2018-07-21T16:27:15.106Z,11.93
2018-07-21T16:29:49.927Z,12.73
2018-07-21T16:32:25.758Z,12.80
2018-07-21T16:35:00.371Z,14.00
2018-07-21T16:37:34.761Z,12.77
2018-07-21T16:40:09.336Z,12.63
2018-07-21T16:42:43.808Z,14.50
2018-07-21T16:45:18.146Z,12.83
2018-07-21T16:47:52.368Z,12.77
2018-07-21T16:50:28.109Z,13.17
2018-07-21T16:53:02.587Z,13.67
2018-07-21T16:55:38.210Z,12.77
2018-07-21T16:58:14.615Z,13.03
2018-07-21T17:00:49.165Z,13.13
2018-07-21T17:03:23.728Z,14.73
2018-07-21T17:05:59.763Z,13.20
2018-07-21T17:08:36.360Z,13.90
2018-07-21T17:11:10.720Z,12.47
2018-07-21T17:13:46.630Z,13.50
2018-07-21T17:16:21.246Z,13.03
2018-07-21T17:18:57.317Z,12.27
2018-07-21T17:21:31.627Z,13.70
2018-07-21T17:24:07.727Z,13.87
2018-07-21T17:26:42.194Z,13.57
2018-07-21T17:29:16.615Z,12.77
2018-07-21T17:33:21.940Z,12.80
2018-07-21T17:35:57.375Z,12.50
2018-07-21T17:38:31.662Z,12.37
2018-07-21T17:41:06.131Z,13.33
2018-07-21T17:43:40.863Z,12.00
2018-07-21T17:46:15.363Z,12.10
2018-07-21T17:48:54.240Z,12.63
2018-07-21T17:51:29.989Z,13.70
2018-07-21T17:54:04.571Z,13.33
2018-07-21T17:56:48.383Z,12.73
2018-07-21T17:59:22.844Z,14.70
2018-07-21T18:01:58.963Z,14.80
2018-07-21T18:04:33.542Z,14.60
2018-07-21T18:07:09.582Z,14.87
2018-07-21T18:09:45.456Z,14.67
2018-07-21T18:12:19.759Z,14.80
2018-07-21T18:14:55.327Z,14.37
2018-07-21T18:17:29.751Z,14.10
2018-07-21T18:20:05.930Z,14.63
2018-07-21T18:22:48.339Z,13.77
2018-07-21T18:25:22.595Z,14.20
2018-07-21T18:27:57.199Z,14.23
2018-07-21T18:30:31.714Z,14.00
2018-07-21T18:33:07.540Z,13.73
2018-07-21T18:35:42.119Z,12.07
2018-07-21T18:38:16.606Z,14.67
2018-07-21T18:40:52.529Z,13.80
2018-07-21T18:43:27.023Z,14.67
2018-07-21T18:46:02.934Z,15.20
2018-07-21T18:48:37.194Z,13.97
2018-07-21T18:51:13.158Z,14.27
2018-07-21T18:53:47.373Z,14.00
2018-07-21T18:56:21.695Z,15.93
2018-07-21T18:58:57.688Z,15.23
2018-07-21T19:01:34.413Z,15.23
2018-07-21T19:04:08.731Z,14.80
2018-07-21T19:06:44.815Z,15.70
2018-07-21T19:09:20.538Z,14.80
2018-07-21T19:12:00.493Z,15.20
2018-07-21T19:14:36.022Z,15.03
2018-07-21T19:17:10.471Z,17.07
2018-07-21T19:20:00.264Z,16.63
2018-07-21T19:22:34.642Z,16.47
2018-07-21T19:25:15.457Z,17.30
2018-07-21T19:27:49.943Z,18.27
2018-07-21T19:30:24.200Z,17.47
2018-07-21T19:33:00.616Z,18.23
2018-07-21T19:35:35.036Z,16.60
2018-07-21T19:38:09.263Z,16.70
2018-07-21T19:40:44.311Z,17.50
2018-07-21T19:43:19.856Z,17.53
2018-07-21T19:45:55.846Z,18.47
2018-07-21T19:48:30.134Z,18.67
2018-07-21T19:51:05.833Z,17.23
2018-07-21T19:53:40.175Z,17.97
2018-07-21T19:56:14.678Z,18.33
2018-07-21T19:58:50.375Z,15.50
2018-07-21T20:01:25.175Z,17.50
2018-07-21T20:03:59.474Z,16.20
2018-07-21T20:06:35.140Z,16.43
2018-07-21T20:09:11.689Z,16.30
2018-07-21T20:11:46.130Z,14.30
2018-07-21T20:14:21.600Z,15.70
2018-07-21T20:16:55.883Z,18.07
2018-07-21T20:19:31.711Z,17.83
2018-07-21T20:22:06.159Z,17.17
2018-07-21T20:24:42.385Z,16.60
2018-07-21T20:27:17.079Z,16.30
2018-07-21T20:29:51.305Z,15.73
2018-07-21T20:32:33.113Z,16.37
2018-07-21T20:35:07.415Z,16.07
2018-07-21T20:37:43.468Z,16.20
2018-07-21T20:40:17.769Z,16.87
2018-07-21T20:42:52.089Z,15.90
2018-07-21T20:45:26.403Z,16.50
2018-07-21T20:48:02.608Z,15.87
2018-07-21T20:50:38.557Z,16.10
2018-07-21T20:53:12.995Z,17.50
2018-07-21T20:55:48.715Z,16.13
2018-07-21T20:58:23.219Z,16.53
2018-07-21T21:00:57.566Z,15.27
2018-07-21T21:03:32.195Z,14.17
2018-07-21T21:06:08.079Z,15.40
2018-07-21T21:08:43.855Z,16.00
2018-07-21T21:11:19.295Z,17.27
2018-07-21T21:13:55.066Z,16.67
2018-07-21T21:16:29.460Z,18.27
2018-07-21T21:19:05.753Z,17.40
2018-07-21T21:21:41.815Z,17.20
2018-07-21T21:24:18.032Z,17.00
2018-07-21T21:26:52.664Z,16.83
2018-07-21T21:29:28.662Z,16.40
2018-07-21T21:32:05.420Z,17.10
2018-07-21T21:34:41.303Z,17.53
2018-07-21T21:37:15.820Z,17.80
2018-07-21T21:39:50.474Z,18.00
2018-07-21T21:42:25.156Z,17.20
2018-07-21T21:44:59.482Z,17.70
2018-07-21T21:47:35.240Z,17.10
2018-07-21T21:50:10.928Z,17.60
2018-07-21T21:52:46.533Z,16.40
2018-07-21T21:55:21.208Z,19.10
2018-07-21T21:57:57.024Z,19.57
2018-07-21T22:00:47.451Z,19.97
2018-07-21T22:03:22.190Z,20.10
2018-07-21T22:05:58.383Z,18.90
2018-07-21T22:08:37.272Z,20.00
2018-07-21T22:11:11.558Z,21.57
2018-07-21T22:13:47.018Z,23.30
2018-07-21T22:16:21.839Z,23.00
2018-07-21T22:18:57.857Z,22.27
2018-07-21T22:21:33.784Z,23.63
2018-07-21T22:24:09.685Z,23.13
2018-07-21T22:26:43.975Z,25.70
2018-07-21T22:29:18.431Z,23.70
2018-07-21T22:31:54.170Z,22.43
2018-07-21T22:34:29.860Z,22.57
2018-07-21T22:37:04.356Z,24.90
2018-07-21T22:39:39.860Z,23.50
2018-07-21T22:42:14.233Z,23.63
2018-07-21T22:44:48.731Z,23.00
2018-07-21T22:47:24.703Z,21.37
2018-07-21T22:50:00.576Z,20.00
2018-07-21T22:52:35.252Z,18.80
2018-07-21T22:55:09.932Z,20.10
2018-07-21T22:57:45.753Z,18.50
2018-07-21T23:00:20.564Z,19.70
2018-07-21T23:02:55.168Z,20.23
2018-07-21T23:05:29.674Z,19.03
2018-07-21T23:08:05.472Z,18.23
2018-07-21T23:10:41.237Z,18.43
2018-07-21T23:13:16.775Z,19.97
2018-07-21T23:15:52.790Z,17.93
2018-07-21T23:18:27.244Z,18.97
2018-07-21T23:21:02.903Z,19.57
2018-07-21T23:23:39.074Z,19.60
2018-07-21T23:26:13.525Z,19.43
2018-07-21T23:28:47.887Z,18.80
2018-07-21T23:31:24.103Z,19.33
2018-07-21T23:34:00.026Z,20.30
2018-07-21T23:36:34.346Z,18.47
2018-07-21T23:39:10.275Z,18.30
2018-07-21T23:41:44.715Z,19.00
2018-07-21T23:44:19.214Z,17.70
2018-07-21T23:46:55.064Z,19.33
2018-07-21T23:49:30.859Z,18.17
2018-07-21T23:52:05.170Z,17.80
2018-07-21T23:54:39.646Z,19.17
2018-07-21T23:57:15.636Z,19.47
2018-07-21T23:59:50.067Z,19.00
